createdAt,value
2018-01-24T00:01:50.888Z,58.71
2018-01-24T00:04:17.124Z,58.40
2018-01-24T00:06:43.374Z,58.15
2018-01-24T00:09:09.615Z,57.69
2018-01-24T00:11:35.849Z,58.74
2018-01-24T00:14:02.100Z,58.78
2018-01-24T00:16:28.343Z,58.55
2018-01-24T00:18:55.331Z,58.50
2018-01-24T00:21:21.562Z,58.23
2018-01-24T00:23:47.800Z,58.74
2018-01-24T00:26:14.047Z,58.59
2018-01-24T00:28:40.439Z,58.70
2018-01-24T00:31:06.663Z,58.83
2018-01-24T00:33:32.915Z,58.69
2018-01-24T00:35:59.199Z,58.32
2018-01-24T00:38:26.183Z,58.16
2018-01-24T00:40:52.409Z,57.62
2018-01-24T00:43:18.656Z,57.74
2018-01-24T00:45:44.917Z,57.81
2018-01-24T00:48:12.091Z,58.44
2018-01-24T00:50:39.059Z,58.72
2018-01-24T00:53:05.314Z,59.22
2018-01-24T00:55:31.540Z,58.93
2018-01-24T00:57:57.879Z,59.54
2018-01-24T01:00:24.118Z,60.01
2018-01-24T01:02:50.347Z,60.07
2018-01-24T01:05:16.598Z,60.24
2018-01-24T01:07:50.780Z,60.26
2018-01-24T01:10:17.037Z,59.95
2018-01-24T01:12:43.242Z,60.32
2018-01-24T01:15:09.469Z,60.79
2018-01-24T01:17:35.701Z,61.16
2018-01-24T01:20:01.957Z,61.39
2018-01-24T01:22:28.183Z,61.48
2018-01-24T01:24:54.424Z,61.80
2018-01-24T01:27:21.401Z,62.28
2018-01-24T01:29:47.648Z,62.26
2018-01-24T01:32:13.878Z,62.42
2018-01-24T01:34:40.125Z,62.84
2018-01-24T01:37:06.415Z,62.63
2018-01-24T01:39:32.640Z,62.49
2018-01-24T01:41:58.886Z,62.62
2018-01-24T01:44:25.124Z,62.10
2018-01-24T01:46:51.350Z,62.14
2018-01-24T01:49:17.608Z,62.12
2018-01-24T01:51:43.834Z,62.15
2018-01-24T01:54:10.130Z,62.09
2018-01-24T01:56:36.382Z,61.60
2018-01-24T01:59:02.642Z,61.49
2018-01-24T02:01:28.866Z,60.81
2018-01-24T02:03:55.123Z,60.72
2018-01-24T02:06:22.074Z,61.36
2018-01-24T02:08:48.371Z,61.45
2018-01-24T02:11:15.034Z,62.11
2018-01-24T02:13:42.033Z,62.64
2018-01-24T02:16:08.288Z,63.32
2018-01-24T02:18:35.333Z,63.62
2018-01-24T02:21:01.593Z,64.33
2018-01-24T02:23:28.583Z,64.87
2018-01-24T02:25:54.804Z,65.15
2018-01-24T02:28:21.031Z,65.60
2018-01-24T02:30:47.270Z,65.87
2018-01-24T02:33:13.515Z,66.61
2018-01-24T02:35:39.738Z,67.27
2018-01-24T02:38:05.954Z,67.63
2018-01-24T02:40:32.187Z,68.14
2018-01-24T02:42:58.454Z,68.73
2018-01-24T02:45:24.761Z,69.00
2018-01-24T02:47:50.984Z,69.35
2018-01-24T02:50:17.200Z,70.17
2018-01-24T02:52:43.419Z,70.25
2018-01-24T02:55:16.747Z,70.26
2018-01-24T02:57:42.979Z,70.56
2018-01-24T03:00:09.215Z,71.04
2018-01-24T03:02:35.439Z,70.79
2018-01-24T03:05:01.676Z,70.88
2018-01-24T03:07:27.912Z,71.02
2018-01-24T03:09:54.877Z,70.59
2018-01-24T03:12:21.124Z,70.68
2018-01-24T03:14:47.344Z,70.89
2018-01-24T03:17:13.587Z,70.83
2018-01-24T03:19:39.815Z,70.88
2018-01-24T03:22:06.066Z,70.56
2018-01-24T03:24:32.295Z,70.14
2018-01-24T03:26:58.537Z,70.51
2018-01-24T03:29:24.743Z,71.20
2018-01-24T03:31:50.996Z,70.88
2018-01-24T03:34:17.212Z,70.82
2018-01-24T03:36:43.456Z,70.79
2018-01-24T03:39:09.660Z,70.96
2018-01-24T03:41:35.880Z,70.81
2018-01-24T03:44:02.136Z,70.64
2018-01-24T03:46:28.384Z,70.70
2018-01-24T03:48:54.615Z,71.05
2018-01-24T03:51:20.840Z,71.21
2018-01-24T03:53:47.074Z,70.74
2018-01-24T03:56:14.044Z,70.50
2018-01-24T03:58:40.266Z,70.24
2018-01-24T04:01:07.263Z,70.22
2018-01-24T04:03:33.475Z,70.68
2018-01-24T04:05:59.725Z,70.88
2018-01-24T04:08:25.929Z,70.87
2018-01-24T04:10:52.172Z,70.69
2018-01-24T04:13:18.399Z,70.54
2018-01-24T04:15:44.648Z,70.53
2018-01-24T04:18:10.867Z,70.78
2018-01-24T04:20:37.115Z,70.95
2018-01-24T04:23:03.331Z,71.57
2018-01-24T04:25:29.585Z,71.57
2018-01-24T04:27:55.837Z,71.39
2018-01-24T04:30:22.083Z,70.95
2018-01-24T04:32:48.323Z,70.85
2018-01-24T04:35:14.559Z,70.83
2018-01-24T04:37:40.784Z,70.89
2018-01-24T04:40:07.079Z,70.71
2018-01-24T04:42:33.307Z,70.39
2018-01-24T04:44:59.557Z,70.32
2018-01-24T04:47:25.808Z,70.56
2018-01-24T04:49:52.028Z,70.03
2018-01-24T04:52:18.278Z,70.43
2018-01-24T04:54:44.532Z,70.60
2018-01-24T04:57:10.782Z,70.91
2018-01-24T04:59:37.770Z,70.71
2018-01-24T05:02:04.024Z,71.22
2018-01-24T05:04:30.260Z,71.42
2018-01-24T05:06:56.494Z,71.65
2018-01-24T05:09:23.475Z,71.38
2018-01-24T05:11:49.703Z,71.86
2018-01-24T05:14:15.934Z,71.56
2018-01-24T05:16:42.186Z,72.37
2018-01-24T05:19:08.506Z,71.87
2018-01-24T05:21:34.796Z,71.84
2018-01-24T05:24:01.780Z,71.49
2018-01-24T05:26:28.057Z,71.24
2018-01-24T05:28:54.311Z,70.87
2018-01-24T05:31:21.344Z,70.83
2018-01-24T05:33:48.323Z,71.19
2018-01-24T05:36:14.579Z,71.19
2018-01-24T05:38:40.800Z,70.97
2018-01-24T05:41:07.094Z,71.63
2018-01-24T05:43:34.103Z,71.81
2018-01-24T05:46:00.367Z,72.42
2018-01-24T05:48:27.340Z,72.26
2018-01-24T05:50:53.748Z,72.16
2018-01-24T05:53:20.754Z,71.99
2018-01-24T05:55:47.051Z,71.55
2018-01-24T05:58:13.324Z,71.52
2018-01-24T06:00:39.608Z,71.26
2018-01-24T06:03:05.858Z,71.89
2018-01-24T06:05:32.192Z,71.99
2018-01-24T06:07:58.520Z,71.48
2018-01-24T06:10:24.814Z,70.87
2018-01-24T06:12:51.855Z,70.53
2018-01-24T06:15:18.901Z,70.09
2018-01-24T06:17:45.143Z,70.11
2018-01-24T06:20:11.431Z,69.94
2018-01-24T06:22:39.135Z,69.59
2018-01-24T06:25:05.399Z,69.19
2018-01-24T06:27:31.635Z,68.39
2018-01-24T06:29:57.869Z,68.86
2018-01-24T06:32:24.091Z,68.87
2018-01-24T06:34:50.341Z,68.41
2018-01-24T06:37:16.552Z,68.40
2018-01-24T06:39:42.775Z,68.70
2018-01-24T06:42:08.988Z,68.71
2018-01-24T06:44:35.211Z,68.82
2018-01-24T06:47:01.444Z,68.45
2018-01-24T06:49:27.719Z,67.97
2018-01-24T06:51:53.968Z,68.18
2018-01-24T06:54:20.984Z,68.50
2018-01-24T06:56:47.212Z,67.76
2018-01-24T06:59:13.470Z,67.74
2018-01-24T07:01:40.442Z,68.32
2018-01-24T07:04:06.680Z,68.32
2018-01-24T07:06:32.904Z,67.91
2018-01-24T07:08:59.136Z,67.59
2018-01-24T07:11:25.452Z,67.90
2018-01-24T07:17:09.584Z,68.51
2018-01-24T07:19:35.894Z,68.91
2018-01-24T07:22:02.152Z,68.64
2018-01-24T07:24:28.408Z,67.76
2018-01-24T07:26:55.386Z,67.49
2018-01-24T07:29:21.660Z,66.57
2018-01-24T07:31:47.868Z,65.78
2018-01-24T07:34:14.111Z,67.20
2018-01-24T07:36:40.465Z,67.49
2018-01-24T07:39:06.695Z,67.03
2018-01-24T07:41:32.947Z,66.50
2018-01-24T07:43:59.209Z,66.84
2018-01-24T07:46:25.420Z,66.28
2018-01-24T07:48:51.717Z,66.07
2018-01-24T07:51:17.989Z,66.42
2018-01-24T07:53:44.275Z,65.88
2018-01-24T07:56:11.263Z,65.43
2018-01-24T07:58:37.643Z,64.97
2018-01-24T08:01:03.927Z,64.14
2018-01-24T08:03:30.201Z,65.12
2018-01-24T08:05:57.179Z,64.14
2018-01-24T08:08:23.435Z,65.03
2018-01-24T08:10:49.704Z,65.15
2018-01-24T08:13:15.973Z,64.69
2018-01-24T08:15:42.290Z,63.90
2018-01-24T08:18:08.540Z,64.02
2018-01-24T08:20:34.768Z,63.81
2018-01-24T08:23:01.019Z,63.55
2018-01-24T08:25:27.274Z,63.65
2018-01-24T08:27:53.550Z,63.92
2018-01-24T08:30:19.810Z,64.74
2018-01-24T08:32:46.088Z,65.02
2018-01-24T08:35:12.324Z,65.20
2018-01-24T08:37:38.588Z,65.25
2018-01-24T08:40:04.862Z,65.74
2018-01-24T08:42:31.916Z,65.74
2018-01-24T08:44:58.939Z,65.67
2018-01-24T08:47:25.432Z,65.33
2018-01-24T08:49:51.727Z,65.09
2018-01-24T08:52:18.705Z,64.76
2018-01-24T08:54:44.943Z,64.40
2018-01-24T08:57:11.202Z,64.04
2018-01-24T08:59:37.967Z,63.53
2018-01-24T09:02:04.208Z,63.06
2018-01-24T09:04:31.494Z,63.21
2018-01-24T09:06:57.748Z,63.31
2018-01-24T09:09:23.988Z,63.17
2018-01-24T09:11:50.704Z,63.44
2018-01-24T09:14:17.040Z,62.68
2018-01-24T09:16:43.370Z,62.19
2018-01-24T09:19:09.716Z,61.92
2018-01-24T09:21:36.402Z,61.99
2018-01-24T09:24:03.728Z,62.51
2018-01-24T09:26:29.994Z,62.28
2018-01-24T09:28:56.241Z,62.65
2018-01-24T09:31:22.488Z,62.63
2018-01-24T09:33:48.733Z,62.73
2018-01-24T09:36:14.986Z,62.50
2018-01-24T09:38:41.998Z,62.46
2018-01-24T09:41:08.324Z,62.62
2018-01-24T09:43:34.573Z,62.20
2018-01-24T09:46:00.969Z,62.39
2018-01-24T09:48:27.227Z,61.99
2018-01-24T09:50:53.443Z,61.60
2018-01-24T09:53:19.665Z,61.50
2018-01-24T09:55:45.913Z,61.31
2018-01-24T09:58:12.119Z,61.85
2018-01-24T10:00:38.413Z,61.33
2018-01-24T10:03:05.429Z,61.43
2018-01-24T10:05:31.687Z,61.48
2018-01-24T10:07:58.669Z,59.48
2018-01-24T10:10:24.904Z,58.45
2018-01-24T10:12:51.160Z,58.13
2018-01-24T10:15:17.414Z,58.97
2018-01-24T10:17:44.388Z,58.89
2018-01-24T10:20:10.635Z,58.55
2018-01-24T10:22:36.871Z,58.20
2018-01-24T10:25:03.148Z,57.46
2018-01-24T10:27:30.138Z,56.76
2018-01-24T10:29:56.432Z,55.92
2018-01-24T10:32:22.748Z,56.19
2018-01-24T10:34:48.992Z,56.69
2018-01-24T10:37:16.052Z,55.34
2018-01-24T10:39:42.350Z,54.70
2018-01-24T10:42:08.707Z,54.22
2018-01-24T10:44:34.984Z,55.22
2018-01-24T10:47:01.223Z,54.69
2018-01-24T10:49:27.461Z,54.37
2018-01-24T10:51:53.731Z,54.31
2018-01-24T10:54:19.993Z,55.25
2018-01-24T10:56:46.493Z,56.30
2018-01-24T10:59:12.795Z,56.17
2018-01-24T11:01:39.047Z,56.45
2018-01-24T11:04:05.311Z,56.58
2018-01-24T11:06:31.527Z,55.72
2018-01-24T11:08:57.796Z,56.85
2018-01-24T11:11:24.043Z,56.22
2018-01-24T11:13:50.276Z,56.46
2018-01-24T11:16:16.577Z,54.29
2018-01-24T11:18:42.815Z,54.52
2018-01-24T11:21:09.067Z,51.63
2018-01-24T11:23:35.395Z,49.55
2018-01-24T11:26:02.384Z,47.51
2018-01-24T11:28:28.682Z,45.59
2018-01-24T11:30:55.724Z,44.40
2018-01-24T11:33:22.032Z,45.26
2018-01-24T11:35:48.282Z,47.85
2018-01-24T11:38:15.360Z,51.84
2018-01-24T11:40:41.644Z,53.16
2018-01-24T11:43:07.917Z,53.45
2018-01-24T11:45:34.288Z,53.31
2018-01-24T11:48:00.534Z,53.07
2018-01-24T11:50:26.833Z,54.03
2018-01-24T11:52:53.078Z,53.81
2018-01-24T11:55:19.394Z,52.70
2018-01-24T11:57:45.632Z,52.35
2018-01-24T12:00:12.720Z,52.59
2018-01-24T12:02:39.698Z,51.59
2018-01-24T12:05:12.975Z,49.39
2018-01-24T12:07:40.009Z,45.38
2018-01-24T12:10:06.332Z,42.03
2018-01-24T12:12:32.584Z,38.41
2018-01-24T12:14:59.643Z,35.68
2018-01-24T12:17:26.642Z,33.27
2018-01-24T12:19:52.876Z,31.94
2018-01-24T12:22:19.133Z,32.35
2018-01-24T12:24:46.171Z,34.59
2018-01-24T12:27:13.313Z,37.35
2018-01-24T12:29:39.612Z,38.12
2018-01-24T12:32:05.868Z,38.84
2018-01-24T12:34:32.173Z,39.80
2018-01-24T12:36:58.428Z,40.17
2018-01-24T12:39:24.691Z,40.29
2018-01-24T12:41:51.665Z,37.91
2018-01-24T12:44:17.905Z,33.66
2018-01-24T12:46:44.155Z,30.65
2018-01-24T12:49:10.424Z,30.57
2018-01-24T12:51:37.288Z,28.54
2018-01-24T12:54:03.554Z,26.15
2018-01-24T12:56:29.808Z,25.48
2018-01-24T12:58:56.054Z,26.37
2018-01-24T13:01:23.084Z,30.21
2018-01-24T13:03:49.332Z,31.14
2018-01-24T13:06:16.346Z,31.93
2018-01-24T13:08:42.596Z,31.32
2018-01-24T13:11:09.608Z,30.66
2018-01-24T13:13:35.867Z,33.97
2018-01-24T13:16:02.989Z,34.60
2018-01-24T13:18:29.292Z,35.78
2018-01-24T13:20:56.221Z,38.34
2018-01-24T13:23:22.456Z,38.72
2018-01-24T13:25:48.703Z,41.99
2018-01-24T13:28:14.989Z,44.21
2018-01-24T13:30:41.996Z,40.19
2018-01-24T13:33:09.013Z,36.35
2018-01-24T13:35:35.338Z,35.23
2018-01-24T13:38:03.263Z,33.12
2018-01-24T13:40:29.602Z,35.62
2018-01-24T13:42:55.840Z,37.69
2018-01-24T13:45:22.080Z,38.12
2018-01-24T13:47:49.052Z,35.96
2018-01-24T13:50:15.358Z,35.47
2018-01-24T13:52:42.372Z,36.15
2018-01-24T13:55:09.589Z,34.75
2018-01-24T13:57:35.855Z,34.17
2018-01-24T14:00:02.105Z,36.84
2018-01-24T14:02:28.569Z,38.55
2018-01-24T14:04:54.803Z,38.83
2018-01-24T14:07:21.053Z,38.33
2018-01-24T14:09:47.327Z,36.91
2018-01-24T14:12:13.605Z,36.80
2018-01-24T14:14:39.871Z,39.31
2018-01-24T14:17:06.139Z,41.79
2018-01-24T14:19:33.105Z,43.25
2018-01-24T14:21:59.355Z,46.80
2018-01-24T14:24:25.627Z,47.76
2018-01-24T14:26:52.892Z,47.76
2018-01-24T14:29:19.189Z,47.88
2018-01-24T14:31:45.447Z,49.22
2018-01-24T14:34:12.420Z,50.70
2018-01-24T14:36:38.704Z,52.59
2018-01-24T14:39:04.965Z,53.11
2018-01-24T14:41:32.020Z,53.58
2018-01-24T14:43:58.281Z,53.28
2018-01-24T14:46:24.559Z,54.31
2018-01-24T14:48:51.534Z,54.41
2018-01-24T14:51:17.779Z,54.25
2018-01-24T14:53:44.368Z,54.57
2018-01-24T14:56:11.364Z,53.92
2018-01-24T14:58:37.615Z,53.58
2018-01-24T15:01:03.997Z,53.55
2018-01-24T15:03:30.245Z,53.90
2018-01-24T15:05:56.548Z,53.89
2018-01-24T15:08:23.535Z,54.92
2018-01-24T15:10:49.893Z,55.08
2018-01-24T15:13:16.159Z,54.99
2018-01-24T15:15:43.271Z,54.29
2018-01-24T15:18:09.586Z,54.88
2018-01-24T15:20:35.942Z,55.11
2018-01-24T15:23:02.240Z,55.08
2018-01-24T15:25:28.544Z,55.29
2018-01-24T15:27:54.870Z,55.43
2018-01-24T15:30:21.123Z,55.76
2018-01-24T15:32:47.430Z,56.18
2018-01-24T15:35:13.810Z,56.91
2018-01-24T15:37:40.158Z,56.96
2018-01-24T15:40:07.244Z,57.39
2018-01-24T15:42:33.556Z,57.82
2018-01-24T15:45:00.588Z,57.92
2018-01-24T15:47:26.866Z,58.18
2018-01-24T15:49:53.142Z,58.48
2018-01-24T15:52:20.158Z,58.44
2018-01-24T15:54:46.429Z,58.57
2018-01-24T15:57:12.811Z,59.28
2018-01-24T15:59:39.131Z,59.71
2018-01-24T16:02:05.421Z,59.74
2018-01-24T16:04:31.803Z,60.19
2018-01-24T16:06:58.147Z,60.60
2018-01-24T16:09:24.464Z,60.84
2018-01-24T16:11:57.626Z,60.93
2018-01-24T16:14:24.687Z,61.17
2018-01-24T16:16:51.031Z,61.63
2018-01-24T16:19:17.328Z,61.41
2018-01-24T16:21:44.405Z,61.57
2018-01-24T16:24:10.666Z,61.85
2018-01-24T16:26:36.972Z,62.55
2018-01-24T16:29:04.239Z,62.64
2018-01-24T16:31:30.507Z,62.58
2018-01-24T16:33:56.883Z,62.86
2018-01-24T16:36:23.228Z,63.21
2018-01-24T16:38:49.502Z,63.08
2018-01-24T16:41:15.841Z,63.41
2018-01-24T16:43:42.858Z,63.75
2018-01-24T16:46:09.188Z,63.38
2018-01-24T16:48:35.464Z,63.62
2018-01-24T16:51:02.529Z,63.96
2018-01-24T16:53:28.798Z,64.15
2018-01-24T16:55:55.052Z,64.14
2018-01-24T16:58:21.334Z,64.48
2018-01-24T17:00:47.596Z,64.80
2018-01-24T17:03:13.890Z,65.08
2018-01-24T17:05:40.124Z,65.29
2018-01-24T17:08:06.376Z,65.23
2018-01-24T17:10:32.630Z,65.55
2018-01-24T17:12:58.958Z,65.53
2018-01-24T17:15:25.272Z,65.32
2018-01-24T17:17:51.499Z,65.71
2018-01-24T17:20:17.817Z,66.40
2018-01-24T17:22:44.093Z,66.16
2018-01-24T17:25:11.069Z,66.37
2018-01-24T17:27:37.393Z,66.41
2018-01-24T17:30:03.671Z,66.45
2018-01-24T17:32:29.959Z,66.69
2018-01-24T17:34:56.325Z,66.60
2018-01-24T17:37:22.625Z,66.54
2018-01-24T17:39:48.951Z,66.64
2018-01-24T17:42:15.313Z,66.72
2018-01-24T17:44:41.596Z,66.72
2018-01-24T17:47:08.608Z,66.96
2018-01-24T17:49:34.855Z,67.25
2018-01-24T17:52:01.101Z,67.24
2018-01-24T17:54:28.063Z,67.27
2018-01-24T17:56:54.355Z,68.67
2018-01-24T17:59:20.628Z,67.71
2018-01-24T18:01:46.906Z,67.56
2018-01-24T18:04:13.176Z,67.54
2018-01-24T18:06:39.449Z,68.38
2018-01-24T18:09:05.704Z,68.77
2018-01-24T18:11:31.986Z,67.94
2018-01-24T18:13:58.358Z,68.84
2018-01-24T18:16:24.710Z,68.87
2018-01-24T18:18:51.717Z,68.14
2018-01-24T18:21:18.152Z,68.27
2018-01-24T18:23:44.469Z,68.72
2018-01-24T18:26:10.766Z,69.59
2018-01-24T18:28:37.145Z,69.54
2018-01-24T18:31:04.058Z,69.21
2018-01-24T18:33:30.323Z,69.39
2018-01-24T18:35:56.561Z,70.00
2018-01-24T18:38:23.551Z,69.30
2018-01-24T18:40:49.821Z,69.31
2018-01-24T18:43:16.328Z,69.48
2018-01-24T18:45:43.392Z,69.43
2018-01-24T18:48:10.280Z,69.45
2018-01-24T18:50:38.106Z,70.11
2018-01-24T18:53:04.346Z,69.50
2018-01-24T18:55:31.134Z,69.97
2018-01-24T18:57:58.178Z,70.96
2018-01-24T19:00:25.232Z,69.95
2018-01-24T19:02:52.263Z,70.08
2018-01-24T19:05:18.617Z,71.52
2018-01-24T19:07:45.618Z,70.91
2018-01-24T19:10:11.900Z,70.62
2018-01-24T19:12:38.141Z,71.34
2018-01-24T19:15:04.424Z,70.97
2018-01-24T19:17:30.717Z,70.97
2018-01-24T19:19:57.025Z,70.33
2018-01-24T19:22:23.321Z,70.06
2018-01-24T19:24:49.555Z,70.19
2018-01-24T19:27:16.612Z,70.36
2018-01-24T19:29:43.624Z,70.74
2018-01-24T19:32:09.906Z,70.65
2018-01-24T19:34:36.340Z,70.30
2018-01-24T19:37:02.627Z,70.38
2018-01-24T19:39:29.322Z,70.73
2018-01-24T19:41:55.668Z,70.68
2018-01-24T19:44:22.040Z,70.94
2018-01-24T19:46:49.512Z,70.47
2018-01-24T19:49:16.566Z,70.76
2018-01-24T19:51:43.643Z,71.01
2018-01-24T19:54:13.187Z,70.30
2018-01-24T19:56:39.635Z,67.93
2018-01-24T19:59:20.734Z,66.60
2018-01-24T20:01:47.749Z,65.52
2018-01-24T20:04:14.116Z,64.64
2018-01-24T20:06:41.160Z,63.72
2018-01-24T20:09:08.344Z,63.21
2018-01-24T20:11:34.634Z,62.77
2018-01-24T20:14:01.692Z,62.55
2018-01-24T20:16:28.069Z,62.41
2018-01-24T20:18:54.356Z,62.29
2018-01-24T20:21:21.411Z,62.13
2018-01-24T20:23:47.843Z,60.96
2018-01-24T20:26:14.311Z,60.32
2018-01-24T20:28:40.758Z,60.67
2018-01-24T20:31:07.065Z,60.28
2018-01-24T20:33:33.367Z,58.81
2018-01-24T20:35:59.673Z,59.21
2018-01-24T20:38:26.953Z,57.61
2018-01-24T20:40:53.981Z,58.18
2018-01-24T20:43:21.764Z,57.03
2018-01-24T20:45:48.100Z,56.99
2018-01-24T20:48:15.180Z,57.09
2018-01-24T20:50:41.532Z,56.26
2018-01-24T20:53:07.786Z,56.17
2018-01-24T20:55:34.098Z,55.66
2018-01-24T20:58:00.392Z,54.63
2018-01-24T21:00:26.715Z,54.67
2018-01-24T21:02:52.986Z,54.28
2018-01-24T21:05:19.312Z,55.16
2018-01-24T21:07:45.669Z,55.05
2018-01-24T21:10:11.943Z,55.02
2018-01-24T21:12:38.228Z,54.94
2018-01-24T21:15:05.357Z,54.44
2018-01-24T21:17:31.670Z,54.56
2018-01-24T21:19:57.941Z,54.57
2018-01-24T21:22:24.199Z,56.07
2018-01-24T21:24:50.557Z,54.30
2018-01-24T21:27:16.867Z,54.64
2018-01-24T21:30:04.762Z,55.57
2018-01-24T21:35:57.953Z,57.50
2018-01-24T21:38:24.208Z,57.13
2018-01-24T21:40:50.463Z,57.29
2018-01-24T21:43:16.762Z,57.27
2018-01-24T21:45:43.994Z,57.87
2018-01-24T21:48:10.990Z,57.28
2018-01-24T21:50:37.828Z,56.65
2018-01-24T21:53:04.098Z,56.86
2018-01-24T21:55:30.339Z,57.15
2018-01-24T21:57:57.388Z,56.99
2018-01-24T22:00:24.218Z,56.92
2018-01-24T22:02:50.485Z,56.22
2018-01-24T22:05:17.495Z,55.68
2018-01-24T22:07:43.758Z,56.04
2018-01-24T22:10:10.371Z,56.56
2018-01-24T22:12:37.448Z,56.77
2018-01-24T22:15:04.477Z,56.24
2018-01-24T22:17:30.775Z,57.10
2018-01-24T22:22:29.084Z,56.72
2018-01-24T22:24:55.420Z,57.04
2018-01-24T22:27:21.755Z,57.29
2018-01-24T22:29:48.118Z,57.42
2018-01-24T22:32:14.420Z,57.67
2018-01-24T22:34:40.731Z,57.76
2018-01-24T22:37:07.049Z,57.29
2018-01-24T22:39:34.141Z,57.02
2018-01-24T22:42:01.247Z,57.03
2018-01-24T22:44:27.547Z,56.54
2018-01-24T22:46:53.838Z,56.59
2018-01-24T22:49:21.624Z,57.29
2018-01-24T22:51:48.634Z,57.33
2018-01-24T22:54:14.882Z,56.76
2018-01-24T22:56:41.143Z,57.69
2018-01-24T22:59:07.357Z,58.39
2018-01-24T23:01:35.176Z,58.66
2018-01-24T23:04:01.432Z,58.67
2018-01-24T23:06:27.694Z,58.21
2018-01-24T23:08:54.690Z,58.22
2018-01-24T23:11:21.091Z,59.06
2018-01-24T23:13:47.354Z,59.39
2018-01-24T23:16:13.739Z,60.21
2018-01-24T23:18:40.057Z,60.86
2018-01-24T23:21:07.098Z,61.23
2018-01-24T23:23:35.012Z,61.08
2018-01-24T23:26:01.363Z,61.09
2018-01-24T23:28:27.696Z,61.81
2018-01-24T23:30:54.102Z,61.62
2018-01-24T23:33:20.605Z,61.60
2018-01-24T23:35:47.687Z,61.61
2018-01-24T23:38:13.979Z,61.81
2018-01-24T23:40:41.101Z,61.45
2018-01-24T23:43:07.421Z,61.55
2018-01-24T23:45:34.675Z,61.35
2018-01-24T23:48:01.012Z,61.28
2018-01-24T23:50:27.375Z,61.58
2018-01-24T23:52:53.804Z,60.20
2018-01-24T23:55:20.976Z,60.12
2018-01-24T23:57:47.304Z,59.12
